Time;durP1;ratioP1;P1;durP2;ratioP2;P2;SDS_P1;SDS_P2;PMS_P1;PMS_P2;Temp;Humidity;BMP_temperature;BMP_pressure;BME280_temperature;BME280_humidity;BME280_pressure;Samples;Min_cycle;Max_cycle;Signal;HPM_P1;HPM_P2
2022/03/07 00:02:24;;;;;;;6.03;2.63;;;19.90;40.40;;;;;;5001852;28;89049;-67
2022/03/07 00:04:52;;;;;;;6.20;2.30;;;19.80;40.30;;;;;;5002027;28;88931;-67
2022/03/07 00:07:20;;;;;;;6.23;2.17;;;19.90;40.40;;;;;;5001861;28;88663;-68
2022/03/07 00:09:48;;;;;;;7.10;2.27;;;19.80;40.40;;;;;;5001839;28;93836;-67
2022/03/07 00:12:17;;;;;;;4.97;2.00;;;19.80;40.40;;;;;;5001893;28;90043;-67
2022/03/07 00:14:45;;;;;;;3.20;1.87;;;19.70;40.20;;;;;;5001900;28;90036;-67
2022/03/07 00:17:13;;;;;;;5.13;1.97;;;19.70;40.30;;;;;;5001537;28;88693;-67
2022/03/07 00:19:41;;;;;;;4.03;2.00;;;19.70;40.30;;;;;;5001834;28;92661;-67
2022/03/07 00:22:09;;;;;;;3.73;2.30;;;19.70;40.30;;;;;;5001411;28;91236;-67
2022/03/07 00:24:37;;;;;;;5.27;1.87;;;19.70;40.30;;;;;;5001613;28;89073;-67
2022/03/07 00:27:05;;;;;;;3.10;1.57;;;19.70;40.30;;;;;;5002170;28;88394;-67
2022/03/07 00:29:34;;;;;;;7.33;1.90;;;19.60;40.20;;;;;;5001715;28;90929;-67
2022/03/07 00:32:05;;;;;;;6.40;1.50;;;19.60;40.20;;;;;;5001725;28;90013;-67
2022/03/07 00:34:33;;;;;;;2.17;1.73;;;19.60;40.20;;;;;;5001587;28;88979;-68
2022/03/07 00:37:01;;;;;;;5.00;1.90;;;19.60;40.20;;;;;;5001497;28;88311;-67
2022/03/07 00:39:29;;;;;;;2.80;1.27;;;19.50;40.10;;;;;;5000898;28;90667;-67
2022/03/07 00:41:57;;;;;;;3.43;1.67;;;19.50;40.10;;;;;;5001054;28;89186;-67
2022/03/07 00:44:25;;;;;;;4.27;1.40;;;19.50;40.10;;;;;;5001443;28;88963;-67
2022/03/07 00:46:54;;;;;;;2.37;1.60;;;19.50;40.10;;;;;;5002161;28;88468;-67
2022/03/07 00:49:22;;;;;;;1.83;1.10;;;19.50;40.00;;;;;;5000154;28;90003;-69
2022/03/07 00:51:50;;;;;;;3.03;1.47;;;19.40;39.90;;;;;;4980969;28;89074;-68
2022/03/07 00:54:18;;;;;;;1.73;1.43;;;19.40;39.90;;;;;;4981586;28;88990;-67
2022/03/07 00:56:46;;;;;;;1.93;1.43;;;19.40;39.90;;;;;;4981384;28;88441;-70
2022/03/07 00:59:14;;;;;;;3.50;1.67;;;19.40;39.90;;;;;;4980804;28;90134;-69
2022/03/07 01:01:42;;;;;;;2.00;1.30;;;19.40;39.90;;;;;;4999955;28;88367;-69
2022/03/07 01:04:12;;;;;;;2.10;1.43;;;19.30;39.80;;;;;;5000159;28;88536;-68
2022/03/07 01:06:39;;;;;;;3.37;1.20;;;19.30;39.80;;;;;;5001001;28;88529;-68
2022/03/07 01:09:07;;;;;;;2.43;1.37;;;19.30;39.80;;;;;;5000866;28;90715;-68
2022/03/07 01:11:36;;;;;;;1.63;1.23;;;19.30;39.80;;;;;;5001027;28;89595;-69
2022/03/07 01:14:04;;;;;;;2.97;1.13;;;19.30;39.80;;;;;;5000958;28;88897;-70
2022/03/07 01:16:32;;;;;;;2.10;1.13;;;19.30;39.80;;;;;;5001301;28;88357;-69
2022/03/07 01:19:00;;;;;;;1.70;0.97;;;19.20;39.70;;;;;;5000953;28;89425;-68
2022/03/07 01:21:30;;;;;;;1.97;1.30;;;19.20;39.70;;;;;;4999887;28;89161;-69
2022/03/07 01:23:58;;;;;;;2.50;1.57;;;19.20;39.70;;;;;;5000101;28;88550;-69
2022/03/07 01:26:26;;;;;;;1.93;1.30;;;19.20;39.70;;;;;;5000484;28;88532;-68
2022/03/07 01:28:54;;;;;;;3.87;1.60;;;19.20;39.70;;;;;;4999593;28;89552;-69
2022/03/07 01:31:22;;;;;;;2.37;1.00;;;19.20;39.60;;;;;;5000741;28;91782;-69
2022/03/07 01:33:50;;;;;;;1.73;1.30;;;19.10;39.60;;;;;;5000099;28;88280;-69
2022/03/07 01:36:18;;;;;;;0.90;0.90;;;19.10;39.50;;;;;;5000387;28;88474;-69
2022/03/07 01:38:47;;;;;;;1.50;1.10;;;19.10;39.50;;;;;;5000282;28;90746;-68
2022/03/07 01:41:15;;;;;;;0.93;0.87;;;19.10;39.50;;;;;;5000241;28;90149;-68
2022/03/07 01:43:43;;;;;;;1.50;0.97;;;19.10;39.50;;;;;;5000471;28;88803;-68
2022/03/07 01:46:11;;;;;;;2.17;1.20;;;19.00;39.40;;;;;;5000579;28;88433;-68
2022/03/07 01:48:39;;;;;;;1.60;1.17;;;19.00;39.40;;;;;;4999041;28;89511;-69
2022/03/07 01:51:08;;;;;;;1.40;1.03;;;19.00;39.40;;;;;;5000226;28;91874;-69
2022/03/07 01:53:36;;;;;;;2.67;1.00;;;19.00;39.40;;;;;;5000212;28;88481;-70
2022/03/07 01:56:06;;;;;;;1.17;1.03;;;19.00;39.40;;;;;;5000081;28;88663;-69
2022/03/07 01:58:34;;;;;;;1.07;0.97;;;19.00;39.40;;;;;;4999519;28;90554;-69
2022/03/07 02:01:02;;;;;;;1.03;0.93;;;19.00;39.30;;;;;;4999828;28;90933;-69
2022/03/07 02:03:31;;;;;;;3.23;1.23;;;19.00;39.30;;;;;;4999971;28;91602;-69
2022/03/07 02:06:00;;;;;;;1.53;1.20;;;19.00;39.30;;;;;;4999759;28;88648;-69
2022/03/07 02:08:28;;;;;;;1.90;0.87;;;19.00;39.30;;;;;;4999699;28;90908;-69
2022/03/07 02:10:56;;;;;;;1.20;0.90;;;18.90;39.90;;;;;;4999805;28;90005;-69
2022/03/07 02:13:25;;;;;;;1.17;0.93;;;18.90;39.30;;;;;;4999930;28;88386;-69
2022/03/07 02:15:54;;;;;;;0.93;0.60;;;18.90;39.30;;;;;;4999224;28;88399;-68
2022/03/07 02:18:22;;;;;;;0.80;0.80;;;18.90;39.30;;;;;;4999181;28;89487;-68
2022/03/07 02:20:53;;;;;;;1.00;0.80;;;18.80;39.20;;;;;;4999774;28;89194;-68
2022/03/07 02:23:22;;;;;;;0.73;0.73;;;18.80;39.20;;;;;;4999701;28;88856;-68
2022/03/07 02:25:50;;;;;;;2.60;1.03;;;18.80;39.20;;;;;;5000096;28;88511;-69
2022/03/07 02:28:18;;;;;;;0.97;0.87;;;18.80;39.20;;;;;;4999830;28;89927;-68
2022/03/07 02:30:46;;;;;;;1.43;0.80;;;18.80;39.20;;;;;;5000072;28;92735;-68
2022/03/07 02:33:15;;;;;;;1.40;0.60;;;18.80;39.20;;;;;;4999608;28;88281;-68
2022/03/07 02:35:43;;;;;;;1.10;0.80;;;18.80;39.20;;;;;;4999790;28;88481;-69
2022/03/07 02:38:15;;;;;;;2.10;0.90;;;18.80;39.20;;;;;;4999293;28;90139;-68
2022/03/07 02:40:46;;;;;;;1.27;1.00;;;18.70;39.10;;;;;;4999533;28;90507;-69
2022/03/07 02:43:17;;;;;;;2.93;1.10;;;18.80;39.20;;;;;;4999746;28;89664;-69
2022/03/07 02:45:45;;;;;;;1.60;0.90;;;18.80;39.10;;;;;;4999947;28;88124;-68
2022/03/07 02:48:14;;;;;;;1.80;1.13;;;18.90;39.10;;;;;;4999572;28;90071;-68
2022/03/07 02:50:44;;;;;;;0.93;0.50;;;19.00;39.10;;;;;;4999582;28;90432;-68
2022/03/07 02:53:13;;;;;;;0.97;0.80;;;19.10;38.90;;;;;;4999732;28;88792;-68
2022/03/07 02:55:41;;;;;;;0.40;0.40;;;19.30;38.90;;;;;;4999505;28;88689;-69
2022/03/07 02:58:10;;;;;;;1.90;0.53;;;19.40;38.90;;;;;;4999454;28;90609;-68
2022/03/07 03:00:38;;;;;;;1.30;0.80;;;19.50;38.80;;;;;;4999439;28;89352;-68
2022/03/07 03:03:06;;;;;;;3.80;0.97;;;19.50;38.70;;;;;;4998796;28;88895;-68
2022/03/07 03:05:35;;;;;;;0.97;0.60;;;19.60;38.70;;;;;;4999057;28;88688;-68
2022/03/07 03:08:03;;;;;;;0.50;0.50;;;19.60;38.60;;;;;;4999215;28;92907;-68
2022/03/07 03:10:31;;;;;;;0.40;0.40;;;19.60;38.60;;;;;;4998711;28;91766;-68
2022/03/07 03:12:59;;;;;;;0.37;0.30;;;19.50;38.50;;;;;;4999213;28;90702;-68
2022/03/07 03:15:28;;;;;;;0.70;0.60;;;19.50;38.40;;;;;;4999312;28;88411;-69
2022/03/07 03:17:56;;;;;;;0.30;0.30;;;19.50;38.50;;;;;;4999452;28;90538;-68
2022/03/07 03:20:24;;;;;;;0.67;0.57;;;19.50;38.50;;;;;;4998891;28;88990;-69
2022/03/07 03:22:53;;;;;;;0.87;0.50;;;19.50;38.50;;;;;;5000690;28;88220;-68
2022/03/07 03:25:22;;;;;;;0.70;0.60;;;19.50;38.50;;;;;;5002915;28;88470;-68
2022/03/07 03:27:50;;;;;;;1.13;0.50;;;19.40;38.40;;;;;;5002747;28;90008;-68
2022/03/07 03:30:18;;;;;;;0.70;0.70;;;19.40;38.40;;;;;;5001900;28;90895;-68
2022/03/07 03:32:47;;;;;;;0.77;0.73;;;19.30;38.40;;;;;;5002347;28;90032;-68
2022/03/07 03:35:16;;;;;;;1.70;0.63;;;19.60;38.60;;;;;;5002953;28;88383;-68
2022/03/07 03:37:43;;;;;;;0.97;0.70;;;19.30;38.40;;;;;;5002317;28;90028;-68
2022/03/07 03:40:12;;;;;;;1.53;0.77;;;19.30;38.40;;;;;;5002430;28;90247;-68
2022/03/07 03:42:41;;;;;;;0.50;0.50;;;19.20;38.30;;;;;;5002372;28;88947;-68
2022/03/07 03:45:10;;;;;;;1.60;0.60;;;19.20;38.30;;;;;;5002314;28;88573;-68
2022/03/07 03:47:38;;;;;;;1.07;0.73;;;19.20;38.30;;;;;;5002724;28;90563;-67
2022/03/07 03:50:09;;;;;;;0.90;0.77;;;19.20;38.30;;;;;;5002515;28;88952;-68
2022/03/07 03:52:37;;;;;;;1.90;0.70;;;19.10;38.30;;;;;;5002192;28;88470;-67
2022/03/07 03:55:06;;;;;;;0.60;0.50;;;19.10;38.30;;;;;;5002520;28;88347;-69
2022/03/07 03:57:34;;;;;;;1.20;0.60;;;19.10;38.30;;;;;;5001771;28;90742;-68
2022/03/07 04:00:05;;;;;;;1.83;0.80;;;19.10;38.30;;;;;;5002150;28;89738;-68
2022/03/07 04:02:33;;;;;;;0.87;0.60;;;19.00;38.30;;;;;;5002090;28;88242;-69
2022/03/07 04:05:01;;;;;;;0.90;0.60;;;19.00;38.20;;;;;;5002369;28;88672;-68
2022/03/07 04:07:31;;;;;;;1.33;0.50;;;19.00;38.30;;;;;;5001438;28;92378;-68
2022/03/07 04:09:59;;;;;;;0.57;0.53;;;19.00;38.30;;;;;;5001470;28;89972;-68
2022/03/07 04:12:27;;;;;;;1.57;0.63;;;18.90;38.20;;;;;;5002313;28;88917;-69
2022/03/07 04:14:55;;;;;;;0.50;0.33;;;19.10;38.40;;;;;;5002580;28;88363;-69
2022/03/07 04:17:24;;;;;;;1.30;0.63;;;18.90;38.30;;;;;;5001613;28;90887;-68
2022/03/07 04:19:53;;;;;;;0.50;0.50;;;18.90;38.30;;;;;;5001702;28;88901;-68
2022/03/07 04:22:20;;;;;;;0.30;0.30;;;18.90;38.90;;;;;;5001985;28;89276;-68
2022/03/07 04:24:50;;;;;;;0.43;0.43;;;18.80;38.20;;;;;;5002506;28;88507;-68
2022/03/07 04:27:18;;;;;;;0.50;0.50;;;18.80;38.20;;;;;;5001480;28;90752;-68
2022/03/07 04:29:46;;;;;;;0.40;0.30;;;18.80;38.30;;;;;;5001639;28;89343;-68
2022/03/07 04:32:14;;;;;;;0.60;0.60;;;18.80;38.30;;;;;;5001634;28;88536;-68
2022/03/07 04:34:42;;;;;;;0.33;0.33;;;18.90;38.30;;;;;;5000999;28;88406;-68
2022/03/07 04:37:10;;;;;;;0.40;0.40;;;19.00;38.30;;;;;;5001306;28;91340;-69
2022/03/07 04:39:38;;;;;;;1.60;0.53;;;19.10;38.30;;;;;;5001536;28;89965;-68
2022/03/07 04:42:08;;;;;;;0.33;0.33;;;19.20;38.20;;;;;;5001406;28;88793;-68
2022/03/07 04:44:36;;;;;;;0.60;0.60;;;19.40;38.20;;;;;;5001082;28;88659;-69
2022/03/07 04:47:05;;;;;;;1.37;0.60;;;19.50;38.10;;;;;;5001525;28;90666;-67
2022/03/07 04:49:33;;;;;;;1.33;0.60;;;19.60;38.00;;;;;;4980963;28;90116;-66
2022/03/07 04:52:01;;;;;;;0.23;0.23;;;19.60;37.90;;;;;;4981402;28;89269;-65
2022/03/07 04:54:34;;;;;;;0.33;0.33;;;19.70;37.90;;;;;;4981452;28;88730;-68
2022/03/07 04:57:02;;;;;;;2.53;0.73;;;19.70;37.90;;;;;;4981861;28;90528;-68
2022/03/07 04:59:32;;;;;;;0.97;0.50;;;19.70;37.80;;;;;;4999828;28;90077;-68
2022/03/07 05:02:00;;;;;;;0.50;0.50;;;19.70;37.80;;;;;;5001494;28;89290;-67
2022/03/07 05:04:28;;;;;;;0.53;0.47;;;19.70;37.80;;;;;;5001333;28;88612;-67
2022/03/07 05:06:57;;;;;;;0.93;0.60;;;19.70;37.80;;;;;;5000353;28;89613;-67
2022/03/07 05:09:25;;;;;;;0.73;0.50;;;19.60;37.70;;;;;;4999200;28;88650;-68
2022/03/07 05:11:53;;;;;;;0.83;0.40;;;19.60;37.70;;;;;;5001394;28;89719;-67
2022/03/07 05:14:21;;;;;;;0.27;0.27;;;19.60;37.70;;;;;;5001302;28;88518;-68
2022/03/07 05:16:50;;;;;;;0.50;0.40;;;19.50;37.70;;;;;;5000689;28;91914;-68
2022/03/07 05:19:18;;;;;;;1.70;0.50;;;19.50;37.70;;;;;;5000368;28;90090;-68
2022/03/07 05:21:46;;;;;;;0.73;0.50;;;19.50;37.70;;;;;;5000638;28;88377;-68
2022/03/07 05:24:14;;;;;;;0.40;0.40;;;19.40;37.70;;;;;;5000972;28;88495;-67
2022/03/07 05:26:42;;;;;;;0.60;0.50;;;19.40;37.70;;;;;;5000722;28;89533;-68
2022/03/07 05:29:10;;;;;;;0.30;0.30;;;19.30;37.70;;;;;;5000418;28;88944;-68
2022/03/07 05:31:38;;;;;;;1.07;0.30;;;19.40;37.80;;;;;;5001067;28;88329;-68
2022/03/07 05:34:07;;;;;;;0.80;0.60;;;19.30;37.70;;;;;;5000402;28;88529;-67
2022/03/07 05:36:35;;;;;;;0.37;0.30;;;19.20;37.70;;;;;;5000539;28;89519;-68
2022/03/07 05:39:03;;;;;;;0.60;0.40;;;19.20;37.70;;;;;;5000848;28;93337;-67
2022/03/07 05:41:31;;;;;;;0.50;0.43;;;19.10;37.70;;;;;;5000485;28;88929;-68
2022/03/07 05:43:59;;;;;;;0.50;0.50;;;19.10;37.70;;;;;;5000468;28;88632;-68
2022/03/07 05:46:28;;;;;;;0.93;0.73;;;19.10;37.70;;;;;;5000341;28;89337;-68
2022/03/07 05:48:57;;;;;;;1.60;0.40;;;19.00;37.60;;;;;;5000631;28;91690;-68
2022/03/07 05:51:27;;;;;;;0.73;0.67;;;19.00;37.70;;;;;;5001049;28;88334;-68
2022/03/07 05:53:55;;;;;;;0.80;0.70;;;19.00;37.70;;;;;;4999736;28;88648;-68
2022/03/07 05:56:23;;;;;;;0.97;0.43;;;19.00;37.70;;;;;;4999565;28;91822;-67
2022/03/07 05:58:51;;;;;;;0.40;0.33;;;19.00;38.30;;;;;;5000491;28;89524;-67
2022/03/07 06:01:18;;;;;;;0.70;0.70;;;19.00;37.70;;;;;;5000737;28;92429;-67
2022/03/07 06:03:47;;;;;;;1.13;0.40;;;18.90;37.60;;;;;;5000833;28;88530;-68
2022/03/07 06:06:15;;;;;;;1.10;0.53;;;18.90;37.60;;;;;;4999846;28;89107;-67
2022/03/07 06:08:44;;;;;;;0.80;0.70;;;18.90;37.70;;;;;;4999774;28;90520;-68
2022/03/07 06:11:12;;;;;;;0.50;0.50;;;18.90;37.70;;;;;;5000260;28;88669;-68
2022/03/07 06:13:40;;;;;;;1.50;0.40;;;18.80;37.60;;;;;;4999843;28;88703;-67
2022/03/07 06:16:08;;;;;;;2.00;0.60;;;18.80;37.60;;;;;;5000328;28;90173;-68
2022/03/07 06:18:36;;;;;;;0.50;0.50;;;18.80;37.70;;;;;;4999707;28;89661;-68
2022/03/07 06:21:05;;;;;;;0.37;0.37;;;18.90;37.70;;;;;;4999462;28;88838;-68
2022/03/07 06:23:33;;;;;;;0.63;0.40;;;19.00;37.70;;;;;;4999496;28;88559;-68
2022/03/07 06:26:02;;;;;;;1.23;0.60;;;19.10;37.70;;;;;;4999671;28;90701;-69
2022/03/07 06:28:30;;;;;;;0.40;0.40;;;19.30;37.60;;;;;;5000010;28;90532;-68
2022/03/07 06:30:58;;;;;;;0.83;0.40;;;19.50;37.60;;;;;;5000036;28;89071;-68
2022/03/07 06:33:26;;;;;;;0.50;0.50;;;19.60;37.50;;;;;;5000070;28;88566;-66
2022/03/07 06:35:54;;;;;;;2.23;0.60;;;19.70;37.40;;;;;;4999286;28;90886;-66
2022/03/07 06:38:22;;;;;;;1.43;0.50;;;19.80;37.40;;;;;;5000198;28;92589;-65
2022/03/07 06:40:50;;;;;;;1.20;0.80;;;19.80;37.30;;;;;;4999846;28;88423;-65
2022/03/07 06:43:19;;;;;;;1.13;0.57;;;19.80;37.10;;;;;;4999623;28;88420;-66
2022/03/07 06:45:47;;;;;;;0.50;0.50;;;19.90;37.20;;;;;;4998646;28;90680;-66
2022/03/07 06:48:15;;;;;;;0.40;0.40;;;19.80;37.10;;;;;;4998952;28;90848;-68
2022/03/07 06:50:43;;;;;;;0.67;0.53;;;19.80;37.10;;;;;;4999294;28;89838;-68
2022/03/07 06:53:11;;;;;;;3.40;0.67;;;19.80;37.10;;;;;;4999348;28;88449;-68
2022/03/07 06:55:39;;;;;;;1.30;0.70;;;19.80;37.10;;;;;;4992302;28;89495;-69
2022/03/07 06:58:07;;;;;;;0.40;0.40;;;19.70;37.10;;;;;;4977749;28;88950;-68
2022/03/07 07:00:37;;;;;;;0.60;0.50;;;19.80;37.20;;;;;;4979067;28;88251;-69
2022/03/07 07:03:05;;;;;;;0.40;0.33;;;19.70;37.20;;;;;;4979636;28;88492;-68
2022/03/07 07:05:34;;;;;;;0.53;0.43;;;19.60;37.10;;;;;;4984999;28;89546;-68
2022/03/07 07:08:02;;;;;;;0.73;0.70;;;19.60;37.20;;;;;;4999387;28;90034;-67
2022/03/07 07:10:30;;;;;;;2.37;0.70;;;19.60;37.30;;;;;;4999565;28;88332;-66
2022/03/07 07:12:58;;;;;;;1.43;0.73;;;19.50;37.30;;;;;;4998856;28;88712;-69
2022/03/07 07:15:26;;;;;;;1.07;0.60;;;19.50;37.50;;;;;;4999025;28;90882;-68
2022/03/07 07:17:55;;;;;;;4.13;1.07;;;19.50;37.60;;;;;;4998527;28;90187;-67
2022/03/07 07:20:23;;;;;;;3.30;0.83;;;19.50;37.80;;;;;;4998530;28;88487;-68
2022/03/07 07:22:51;;;;;;;2.43;1.00;;;19.50;38.00;;;;;;4999390;28;88418;-68
2022/03/07 07:25:19;;;;;;;2.73;0.70;;;19.50;38.30;;;;;;4998224;28;90607;-67
2022/03/07 07:27:47;;;;;;;2.53;1.07;;;19.60;38.50;;;;;;4998413;28;90375;-67
2022/03/07 07:30:15;;;;;;;0.93;0.70;;;19.50;38.60;;;;;;4999215;28;88378;-68
2022/03/07 07:32:43;;;;;;;0.77;0.50;;;19.50;38.80;;;;;;4998586;28;88562;-68
2022/03/07 07:35:13;;;;;;;0.93;0.80;;;19.50;38.90;;;;;;4998673;28;92229;-67
2022/03/07 07:37:41;;;;;;;5.27;1.33;;;19.50;39.10;;;;;;4998179;28;89011;-67
2022/03/07 07:40:10;;;;;;;1.07;0.70;;;19.50;39.20;;;;;;4986276;28;89839;-67
2022/03/07 07:42:38;;;;;;;3.37;0.77;;;19.60;39.40;;;;;;4991489;28;88578;-68
2022/03/07 07:45:07;;;;;;;2.07;1.00;;;19.60;39.40;;;;;;4997206;28;90252;-67
2022/03/07 07:47:35;;;;;;;5.53;0.87;;;19.80;39.50;;;;;;4998045;28;89077;-67
2022/03/07 07:50:03;;;;;;;1.50;1.10;;;19.90;39.40;;;;;;4998244;28;88924;-66
2022/03/07 07:52:32;;;;;;;0.93;0.70;;;20.10;39.40;;;;;;4993783;28;88548;-67
2022/03/07 07:55:02;;;;;;;3.83;0.70;;;20.30;39.40;;;;;;4997790;28;90118;-68
2022/03/07 07:57:30;;;;;;;0.70;0.60;;;20.50;39.30;;;;;;4997974;28;90062;-68
2022/03/07 07:59:58;;;;;;;0.67;0.63;;;20.80;39.40;;;;;;4998161;28;89582;-68
2022/03/07 08:02:43;;;;;;;1.73;0.33;;;21.00;39.20;;;;;;4996503;28;89312;-68
2022/03/07 08:05:12;;;;;;;1.43;0.67;;;21.20;39.10;;;;;;4994602;28;90580;-69
2022/03/07 08:07:42;;;;;;;1.33;0.70;;;21.40;38.90;;;;;;4994761;28;90123;-68
2022/03/07 08:10:10;;;;;;;0.77;0.60;;;21.60;38.90;;;;;;5001590;28;88940;-69
2022/03/07 08:12:38;;;;;;;0.73;0.60;;;21.70;38.80;;;;;;5002054;28;88492;-68
2022/03/07 08:15:11;;;;;;;0.70;0.50;;;21.80;38.70;;;;;;5001847;28;89630;-68
2022/03/07 08:17:41;;;;;;;1.03;0.77;;;21.80;38.60;;;;;;4999369;28;89023;-68
2022/03/07 08:20:10;;;;;;;1.40;0.87;;;21.80;38.60;;;;;;5001691;28;90548;-68
2022/03/07 08:22:38;;;;;;;0.50;0.50;;;21.80;38.60;;;;;;5001107;28;88335;-67
2022/03/07 08:25:08;;;;;;;0.70;0.50;;;21.80;38.50;;;;;;4997784;28;89606;-68
2022/03/07 08:27:36;;;;;;;1.00;0.60;;;21.90;38.50;;;;;;4998512;28;90239;-68
2022/03/07 08:30:06;;;;;;;3.13;0.53;;;22.00;38.50;;;;;;5015134;28;89329;-68
2022/03/07 08:32:34;;;;;;;1.80;0.40;;;22.10;38.40;;;;;;5020079;28;88536;-67
2022/03/07 08:35:03;;;;;;;0.73;0.50;;;22.30;38.40;;;;;;4997495;28;90580;-70
2022/03/07 08:37:31;;;;;;;1.40;0.50;;;22.40;38.30;;;;;;4998637;28;90206;-69
2022/03/07 08:39:59;;;;;;;0.83;0.60;;;22.60;38.30;;;;;;5001061;28;88453;-69
2022/03/07 08:42:28;;;;;;;1.23;0.60;;;22.60;38.00;;;;;;5001214;28;88511;-68
2022/03/07 08:44:56;;;;;;;0.60;0.50;;;22.70;38.70;;;;;;5000809;28;89569;-67
2022/03/07 08:47:24;;;;;;;2.20;0.47;;;22.70;37.90;;;;;;4997362;28;90058;-67
2022/03/07 08:49:53;;;;;;;0.30;0.30;;;;;;;;;;4999952;28;88707;-67
2022/03/07 08:52:21;;;;;;;3.67;0.70;;;22.70;37.30;;;;;;5000401;28;88465;-67
2022/03/07 08:54:49;;;;;;;0.50;0.43;;;22.70;37.90;;;;;;4999590;28;89362;-68
2022/03/07 08:57:17;;;;;;;0.50;0.50;;;22.80;37.80;;;;;;4998999;28;90712;-67
2022/03/07 08:59:46;;;;;;;0.60;0.60;;;;;;;;;;4999996;28;88796;-67
2022/03/07 09:02:14;;;;;;;1.77;0.40;;;23.10;37.20;;;;;;5001725;28;88374;-67
2022/03/07 09:04:44;;;;;;;0.40;0.40;;;23.20;37.70;;;;;;4998475;28;93581;-69
2022/03/07 09:07:11;;;;;;;0.70;0.60;;;23.30;37.60;;;;;;4999188;28;89936;-67
2022/03/07 09:09:39;;;;;;;0.73;0.50;;;23.40;37.60;;;;;;5000736;28;88413;-67
2022/03/07 09:12:09;;;;;;;0.30;0.30;;;23.30;37.50;;;;;;5000520;28;88616;-67
2022/03/07 09:14:37;;;;;;;1.60;0.50;;;23.30;37.50;;;;;;4999495;28;90758;-67
2022/03/07 09:17:06;;;;;;;0.43;0.43;;;23.20;37.60;;;;;;4998418;28;89321;-67
2022/03/07 09:19:34;;;;;;;0.70;0.60;;;23.20;37.60;;;;;;4999478;28;91045;-67
2022/03/07 09:22:03;;;;;;;0.60;0.50;;;23.20;37.70;;;;;;4999896;28;88169;-67
2022/03/07 09:24:31;;;;;;;0.53;0.40;;;23.20;37.70;;;;;;4999499;28;90683;-67
2022/03/07 09:26:59;;;;;;;0.57;0.40;;;23.30;37.80;;;;;;4999875;28;90079;-67
2022/03/07 09:29:27;;;;;;;2.53;0.73;;;23.50;37.80;;;;;;5000163;28;88815;-67
2022/03/07 09:32:01;;;;;;;2.00;0.60;;;23.60;37.70;;;;;;5000574;28;88581;-67
2022/03/07 09:34:30;;;;;;;0.50;0.50;;;23.80;37.60;;;;;;5000186;28;90714;-68
2022/03/07 09:36:58;;;;;;;0.50;0.50;;;23.90;37.50;;;;;;4998371;28;90118;-67
2022/03/07 09:39:26;;;;;;;2.57;0.40;;;24.00;37.60;;;;;;4999933;28;90336;-68
2022/03/07 09:41:54;;;;;;;0.40;0.40;;;24.00;37.50;;;;;;4998997;28;88459;-68
2022/03/07 09:44:22;;;;;;;0.27;0.20;;;24.00;37.50;;;;;;4999756;28;92383;-67
2022/03/07 09:46:50;;;;;;;0.50;0.43;;;23.90;37.50;;;;;;4998376;28;89981;-67
2022/03/07 09:49:19;;;;;;;1.13;0.43;;;23.90;37.60;;;;;;4992758;28;90145;-68
2022/03/07 09:51:49;;;;;;;0.47;0.47;;;23.80;37.70;;;;;;4994438;28;88578;-67
2022/03/07 09:54:17;;;;;;;0.40;0.40;;;23.70;37.70;;;;;;4996159;28;92275;-67
2022/03/07 09:56:45;;;;;;;0.63;0.37;;;23.60;38.40;;;;;;4999011;28;88942;-67
2022/03/07 09:59:13;;;;;;;0.30;0.30;;;23.50;37.90;;;;;;4999939;28;88756;-68
2022/03/07 10:01:41;;;;;;;1.50;0.40;;;23.40;38.00;;;;;;5000074;28;88653;-68
2022/03/07 10:04:10;;;;;;;0.80;0.50;;;23.30;38.00;;;;;;4999451;28;92363;-67
2022/03/07 10:06:38;;;;;;;0.40;0.40;;;23.20;38.10;;;;;;4998009;28;90006;-67
2022/03/07 10:09:07;;;;;;;0.83;0.40;;;23.20;38.30;;;;;;4995306;28;89815;-67
2022/03/07 10:11:35;;;;;;;1.83;0.40;;;23.10;38.30;;;;;;4982675;28;88636;-67
2022/03/07 10:14:05;;;;;;;2.93;0.73;;;23.10;38.40;;;;;;5000192;28;90167;-67
2022/03/07 10:16:37;;;;;;;0.40;0.33;;;23.20;38.60;;;;;;4998484;28;90237;-67
2022/03/07 10:19:07;;;;;;;0.53;0.53;;;23.30;38.60;;;;;;4999707;28;88777;-68
2022/03/07 10:21:36;;;;;;;0.90;0.47;;;23.50;38.60;;;;;;4980302;28;88482;-67
2022/03/07 10:24:04;;;;;;;5.43;0.40;;;23.70;38.60;;;;;;4996248;28;91002;-67
2022/03/07 10:26:40;;;;;;;0.50;0.50;;;23.90;38.50;;;;;;4998958;28;90147;-67
2022/03/07 10:29:08;;;;;;;1.33;0.50;;;24.00;38.50;;;;;;4998393;28;88869;-72
2022/03/07 10:31:56;;;;;;;0.77;0.70;;;24.00;38.40;;;;;;4979143;28;88596;-78
2022/03/07 10:34:26;;;;;;;1.73;0.67;;;24.00;38.30;;;;;;4997384;28;91713;-77
2022/03/07 10:36:54;;;;;;;0.40;0.40;;;24.00;38.30;;;;;;4995871;28;91949;-78
2022/03/07 10:39:24;;;;;;;5.03;0.70;;;24.00;38.20;;;;;;4998623;28;88969;-78
2022/03/07 10:41:54;;;;;;;0.57;0.33;;;23.80;38.00;;;;;;5000077;28;88391;-78
2022/03/07 10:44:27;;;;;;;0.37;0.30;;;23.80;38.00;;;;;;4999042;28;92418;-78
2022/03/07 10:47:06;;;;;;;0.63;0.50;;;23.70;37.90;;;;;;4999616;28;89453;-78
2022/03/07 10:49:34;;;;;;;0.57;0.47;;;23.60;37.80;;;;;;4994547;28;88476;-77
2022/03/07 10:52:05;;;;;;;0.50;0.50;;;23.50;37.80;;;;;;4980689;28;88559;-77
2022/03/07 10:54:36;;;;;;;1.03;0.60;;;23.40;37.70;;;;;;4989492;28;91001;-76
2022/03/07 10:57:07;;;;;;;0.50;0.50;;;23.40;37.70;;;;;;4991487;28;89517;-77
2022/03/07 10:59:38;;;;;;;0.70;0.50;;;23.40;37.70;;;;;;4998487;28;89340;-77
2022/03/07 11:02:09;;;;;;;0.63;0.60;;;23.40;37.60;;;;;;4999670;28;88437;-78
2022/03/07 11:04:38;;;;;;;0.40;0.40;;;23.50;37.50;;;;;;4999191;28;90011;-77
2022/03/07 11:07:08;;;;;;;0.93;0.47;;;23.60;37.40;;;;;;4996011;28;89120;-77
2022/03/07 11:09:37;;;;;;;2.27;0.57;;;23.80;37.30;;;;;;4998076;28;88710;-78
2022/03/07 11:12:07;;;;;;;0.57;0.50;;;24.00;37.20;;;;;;4999695;28;88380;-78
2022/03/07 11:14:35;;;;;;;0.70;0.57;;;24.10;37.00;;;;;;4998702;28;93718;-73
2022/03/07 11:17:04;;;;;;;3.27;0.50;;;24.30;36.90;;;;;;4998644;28;88860;-74
2022/03/07 11:19:32;;;;;;;0.77;0.50;;;24.40;36.80;;;;;;4999079;28;88892;-69
2022/03/07 11:22:00;;;;;;;1.27;0.40;;;24.40;36.60;;;;;;4998285;28;88631;-70
2022/03/07 11:24:28;;;;;;;0.97;0.47;;;24.40;36.50;;;;;;4997988;28;91121;-71
2022/03/07 11:26:56;;;;;;;0.93;0.60;;;24.30;36.40;;;;;;4997915;28;89071;-70
2022/03/07 11:29:43;;;;;;;0.40;0.40;;;24.30;36.40;;;;;;4998092;28;88490;-71
2022/03/07 11:32:13;;;;;;;3.23;0.50;;;24.20;36.30;;;;;;4998472;28;88534;-70
2022/03/07 11:34:52;;;;;;;0.80;0.60;;;24.20;36.30;;;;;;4998554;28;90164;-70
2022/03/07 11:37:20;;;;;;;1.17;0.50;;;24.10;36.20;;;;;;4996277;28;89092;-70
2022/03/07 11:39:48;;;;;;;1.43;0.50;;;24.00;36.10;;;;;;4997614;28;88803;-70
2022/03/07 11:42:17;;;;;;;1.20;0.43;;;23.90;36.10;;;;;;4998807;28;88092;-70
2022/03/07 11:44:47;;;;;;;1.43;0.40;;;23.80;36.10;;;;;;5000886;28;90702;-69
2022/03/07 11:47:16;;;;;;;0.50;0.50;;;23.80;36.10;;;;;;5001463;28;88545;-70
2022/03/07 11:49:44;;;;;;;0.67;0.60;;;23.70;36.10;;;;;;4994372;28;89737;-71
2022/03/07 11:52:15;;;;;;;0.57;0.40;;;23.60;36.00;;;;;;4994634;28;89782;-70
2022/03/07 11:54:53;;;;;;;0.40;0.40;;;23.50;36.00;;;;;;5000721;28;90018;-70
2022/03/07 11:57:32;;;;;;;1.73;0.73;;;23.50;36.10;;;;;;5000230;28;88807;-71
2022/03/07 12:00:17;;;;;;;3.33;0.30;;;23.60;36.00;;;;;;5001021;28;88562;-71
2022/03/07 12:02:46;;;;;;;1.90;0.50;;;23.70;36.00;;;;;;5001921;28;88561;-69
2022/03/07 12:05:26;;;;;;;1.60;0.67;;;23.90;36.00;;;;;;5001301;28;92566;-70
2022/03/07 12:08:06;;;;;;;0.80;0.40;;;24.10;36.00;;;;;;4979316;28;90118;-71
2022/03/07 12:10:34;;;;;;;0.80;0.50;;;24.20;35.80;;;;;;5002550;28;89243;-72
2022/03/07 12:13:09;;;;;;;1.77;0.50;;;24.40;35.80;;;;;;4999768;28;88453;-70
2022/03/07 12:15:45;;;;;;;5.37;0.70;;;24.40;35.70;;;;;;5000333;28;90593;-70
2022/03/07 12:18:13;;;;;;;1.43;0.43;;;24.50;35.70;;;;;;5001851;28;89622;-70
2022/03/07 12:20:49;;;;;;;1.07;0.80;;;24.40;35.60;;;;;;5000924;28;89008;-70
2022/03/07 12:23:18;;;;;;;0.33;0.30;;;24.40;35.60;;;;;;5000988;28;88712;-70
2022/03/07 12:25:46;;;;;;;7.83;0.90;;;24.40;35.60;;;;;;5000971;28;90812;-71
2022/03/07 12:28:14;;;;;;;0.47;0.47;;;24.30;35.60;;;;;;5001966;28;91969;-71
2022/03/07 12:30:43;;;;;;;1.40;0.60;;;24.30;35.60;;;;;;5000732;28;88417;-71
2022/03/07 12:33:14;;;;;;;0.67;0.50;;;24.20;35.60;;;;;;5001427;28;88642;-71
2022/03/07 12:35:42;;;;;;;1.30;0.60;;;24.10;35.60;;;;;;5000174;28;90610;-71
2022/03/07 12:38:10;;;;;;;0.33;0.33;;;24.00;35.60;;;;;;5000760;28;88548;-71
2022/03/07 12:40:38;;;;;;;1.80;0.43;;;24.00;35.70;;;;;;5001143;28;90171;-71
2022/03/07 12:43:08;;;;;;;0.37;0.37;;;23.90;35.70;;;;;;5000782;28;88592;-71
2022/03/07 12:45:46;;;;;;;2.77;0.50;;;23.80;35.80;;;;;;5000141;28;89691;-71
2022/03/07 12:48:14;;;;;;;1.07;0.50;;;23.80;35.80;;;;;;5000327;28;90158;-72
2022/03/07 12:50:42;;;;;;;6.13;0.47;;;23.70;35.70;;;;;;5000515;28;89039;-70
2022/03/07 12:53:13;;;;;;;0.40;0.40;;;23.60;35.70;;;;;;5000306;28;88376;-71
2022/03/07 12:55:41;;;;;;;0.50;0.40;;;23.60;35.70;;;;;;4992582;28;89329;-71
2022/03/07 12:58:11;;;;;;;4.80;0.60;;;23.60;35.80;;;;;;4999056;28;91540;-70